Language: 


Des rapports , des résumés tant et plus, au choix de chacun....


Données statistiques de la station
Quotidien Rapport Avril 1, 2017 Unités:  Anglais    Métrique   les deux
« Précédent Jour
Suivant Jour »
Quotidien Hebdomadaire Mensuel Annuel Actuel
  Haut: Bas: Moyen:
Température: 62.2 °F 46.6 °F 53.6 °F
Pt de rosée: 50.9 °F 39.6 °F 45.5 °F
Humidité: 96 % 50 % 76 %
Vitesse du vent: 10.3 mph 0 mph 2.7 mph
Rafales: 12.8 mph - -
Vent:- - SW
Pression: 29.9 in 29.8 in -
Précipitation: 0 in    
Historical Graphs
 
 
Données statistiques pour Avril 1, 2017
Heure Température Point de rosée Pression Vent Vitesse du vent Refales Humidité Pluie (taux horaire)
00:00 47.7 °F 45 °F 29.9 in Calm   2.5 mph 90 % 0 in
00:05 47.7 °F 45.1 °F 29.9 in Calm   2 mph 91 % 0 in
00:10 47.7 °F 45.1 °F 29.8 in Calm   2.5 mph 91 % 0 in
00:15 47.8 °F 45.3 °F 29.8 in Calm   2.5 mph 91 % 0 in
00:20 48 °F 45.7 °F 29.8 in Calm     91 % 0 in
00:25 47.8 °F 45.1 °F 29.8 in Calm     90 % 0 in
00:30 47.8 °F 45.1 °F 29.8 in Calm   2.5 mph 90 % 0 in
00:35 47.8 °F 45.1 °F 29.8 in Calm   2.5 mph 90 % 0 in
00:40 47.8 °F 45.3 °F 29.8 in ESE 1.3 mph 2 mph 91 % 0 in
00:45 47.8 °F 45.7 °F 29.8 in Calm   2.9 mph 92 % 0 in
00:50 48 °F 46 °F 29.8 in Calm   4 mph 93 % 0 in
00:55 48 °F 46 °F 29.9 in Calm   4 mph 93 % 0 in
01:00 48.4 °F 46.6 °F 29.9 in Calm   3.8 mph 93 % 0 in
01:05 48.4 °F 46.6 °F 29.9 in Calm   3.8 mph 93 % 0 in
01:10 48.4 °F 46.6 °F 29.9 in Calm     93 % 0 in
01:15 48.4 °F 46.6 °F 29.9 in Calm     93 % 0 in
01:20 48.2 °F 46.2 °F 29.9 in Calm   2.2 mph 93 % 0 in
01:25 48.2 °F 46.2 °F 29.9 in Calm   2.2 mph 93 % 0 in
01:30 48 °F 46 °F 29.9 in Calm   1.3 mph 93 % 0 in
01:35 47.8 °F 45.7 °F 29.9 in Calm     92 % 0 in
01:40 47.7 °F 45.9 °F 29.9 in Calm     93 % 0 in
01:45 47.3 °F 45.3 °F 29.9 in Calm     93 % 0 in
01:51 47.1 °F 45.3 °F 29.9 in Calm   0.9 mph 93 % 0 in
01:56 47.3 °F 45.3 °F 29.9 in Calm   0.9 mph 93 % 0 in
02:01 47.5 °F 45.7 °F 29.9 in Calm     93 % 0 in
02:06 47.5 °F 45.9 °F 29.9 in Calm     94 % 0 in
02:11 47.5 °F 45.9 °F 29.9 in Calm     94 % 0 in
02:16 47.5 °F 45.9 °F 29.9 in Calm   0.9 mph 94 % 0 in
02:21 47.5 °F 45.9 °F 29.9 in Calm   2.7 mph 94 % 0 in
02:22 47.5 °F 45.9 °F 29.8 in Calm   2.7 mph 94 % 0 in
02:27 47.5 °F 46.2 °F 29.8 in Calm   1.3 mph 95 % 0 in
02:32 47.7 °F 46.2 °F 29.8 in Calm   2.2 mph 95 % 0 in
02:37 47.5 °F 46.2 °F 29.8 in Calm   2.2 mph 95 % 0 in
02:42 47.5 °F 46.2 °F 29.8 in Calm     95 % 0 in
02:47 47.5 °F 46.2 °F 29.8 in Calm     95 % 0 in
02:52 47.1 °F 45.9 °F 29.8 in Calm     95 % 0 in
02:57 46.9 °F 45.7 °F 29.8 in Calm   1.3 mph 95 % 0 in
03:02 47.1 °F 45.9 °F 29.8 in Calm   2.2 mph 95 % 0 in
03:07 47.1 °F 45.9 °F 29.8 in Calm   2.2 mph 95 % 0 in
03:12 47.1 °F 45.9 °F 29.8 in Calm   2.7 mph 95 % 0 in
03:17 47.1 °F 45.9 °F 29.8 in Calm   2.7 mph 95 % 0 in
03:22 48 °F 46.8 °F 29.8 in South 2 mph 5.4 mph 95 % 0 in
03:27 48.4 °F 47.3 °F 29.8 in South 3.4 mph 5.4 mph 96 % 0 in
03:32 49.1 °F 48 °F 29.8 in South 3.4 mph 6 mph 96 % 0 in
03:37 49.6 °F 48.4 °F 29.8 in South 3.8 mph 6 mph 95 % 0 in
03:42 50 °F 48.6 °F 29.8 in South 4 mph 6 mph 95 % 0 in
03:48 50.4 °F 48.9 °F 29.8 in WSW 1.3 mph 6.3 mph 95 % 0 in
03:53 50.7 °F 49.3 °F 29.8 in SSW 5.6 mph 6.3 mph 95 % 0 in
03:58 51.1 °F 49.5 °F 29.8 in WSW 5.4 mph 6.5 mph 94 % 0 in
04:03 51.3 °F 49.6 °F 29.8 in SW 5.8 mph 6.5 mph 94 % 0 in
04:08 51.4 °F 49.3 °F 29.8 in Calm   6.5 mph 92 % 0 in
04:13 51.6 °F 48.9 °F 29.8 in Calm   5.4 mph 91 % 0 in
04:18 51.6 °F 48.9 °F 29.8 in Calm   3.4 mph 91 % 0 in
04:23 51.6 °F 48.7 °F 29.8 in West 1.1 mph 3.8 mph 90 % 0 in
04:28 51.4 °F 48.4 °F 29.8 in Calm   3.8 mph 89 % 0 in
04:33 51.4 °F 48.4 °F 29.8 in Calm   3.4 mph 89 % 0 in
04:38 51.4 °F 48 °F 29.8 in Calm     88 % 0 in
04:43 51.3 °F 47.8 °F 29.8 in Calm   0.9 mph 88 % 0 in
04:48 51.1 °F 47.7 °F 29.8 in Calm   0.9 mph 88 % 0 in
04:53 51.1 °F 47.7 °F 29.8 in Calm     88 % 0 in
04:58 51.1 °F 47.7 °F 29.8 in Calm     88 % 0 in
05:03 51.1 °F 47.7 °F 29.8 in Calm   2.7 mph 88 % 0 in
05:08 51.1 °F 47.7 °F 29.8 in South 1.6 mph 2.7 mph 88 % 0 in
05:13 51.1 °F 47.7 °F 29.8 in Calm   1.6 mph 88 % 0 in
05:18 51.1 °F 47.7 °F 29.8 in Calm   0.9 mph 88 % 0 in
05:23 51.1 °F 47.7 °F 29.8 in Calm     88 % 0 in
05:28 50.9 °F 47.5 °F 29.8 in Calm   1.1 mph 88 % 0 in
05:33 50.9 °F 47.7 °F 29.8 in South 3.6 mph 3.8 mph 89 % 0 in
05:38 50.9 °F 47.7 °F 29.8 in SSW 0.9 mph 4.3 mph 89 % 0 in
05:43 50.9 °F 47.7 °F 29.8 in South 2.9 mph 4.3 mph 89 % 0 in
05:48 50.9 °F 47.7 °F 29.8 in South 3.6 mph 3.8 mph 89 % 0 in
05:53 50.9 °F 47.7 °F 29.8 in South 3.4 mph 3.8 mph 89 % 0 in
05:58 50.9 °F 47.7 °F 29.8 in Calm   3.4 mph 89 % 0 in
06:03 50.9 °F 47.7 °F 29.8 in South 2.9 mph 3.1 mph 89 % 0 in
06:08 50.9 °F 48 °F 29.8 in Calm   3.6 mph 90 % 0 in
06:10 50.9 °F 48 °F 29.8 in Calm   3.6 mph 90 % 0 in
06:15 50.9 °F 48 °F 29.8 in South 2.5 mph 3.8 mph 90 % 0 in
06:20 50.9 °F 48 °F 29.8 in Calm   3.8 mph 90 % 0 in
06:25 50.9 °F 48 °F 29.8 in SSE 2.5 mph 5.4 mph 90 % 0 in
06:30 50.9 °F 48.4 °F 29.8 in South 2.9 mph 5.4 mph 91 % 0 in
06:35 50.9 °F 48.4 °F 29.8 in Calm   4 mph 91 % 0 in
06:40 50.7 °F 48.2 °F 29.8 in SSW 4.3 mph 4.3 mph 91 % 0 in
06:45 50.7 °F 48.6 °F 29.8 in SSW 2.2 mph 4.7 mph 92 % 0 in
06:50 50.7 °F 48.6 °F 29.8 in Calm   4.7 mph 92 % 0 in
06:55 50.5 °F 48.4 °F 29.8 in Calm   3.6 mph 92 % 0 in
07:00 50.5 °F 48.4 °F 29.8 in Calm   3.6 mph 92 % 0 in
07:05 50.4 °F 48.4 °F 29.8 in SSW 2.5 mph 3.4 mph 93 % 0 in
07:10 50.2 °F 48.2 °F 29.8 in Calm   3.4 mph 93 % 0 in
07:15 50.2 °F 48.2 °F 29.8 in South 2.7 mph 3.8 mph 93 % 0 in
07:20 50 °F 48 °F 29.8 in Calm   3.8 mph 93 % 0 in
07:25 50 °F 48 °F 29.8 in Calm   3.1 mph 93 % 0 in
07:30 49.8 °F 47.8 °F 29.8 in Calm     93 % 0 in
07:35 49.8 °F 47.8 °F 29.8 in Calm     93 % 0 in
07:40 49.8 °F 48.2 °F 29.8 in Calm   1.3 mph 94 % 0 in
07:45 49.6 °F 48 °F 29.8 in Calm   1.3 mph 94 % 0 in
07:50 49.6 °F 48 °F 29.8 in Calm     94 % 0 in
07:55 49.6 °F 48 °F 29.8 in Calm   1.6 mph 94 % 0 in
08:00 49.6 °F 48 °F 29.8 in Calm   2.7 mph 94 % 0 in
08:05 49.6 °F 48 °F 29.8 in Calm   3.6 mph 94 % 0 in
08:06 49.6 °F 48 °F 29.8 in Calm   3.6 mph 94 % 0 in
08:11 49.6 °F 48 °F 29.8 in Calm   3.6 mph 94 % 0 in
08:16 49.6 °F 48 °F 29.8 in South 2.5 mph 3.1 mph 94 % 0 in
08:21 49.6 °F 48.4 °F 29.8 in Calm   3.1 mph 95 % 0 in
08:26 49.8 °F 48.4 °F 29.8 in Calm   3.1 mph 95 % 0 in
08:31 50 °F 48.6 °F 29.8 in Calm   2.9 mph 95 % 0 in
08:36 50.2 °F 48.7 °F 29.8 in Calm   2.9 mph 95 % 0 in
08:41 50.2 °F 48.7 °F 29.8 in Calm     95 % 0 in
08:46 50.4 °F 48.9 °F 29.8 in SSW 3.1 mph 3.1 mph 95 % 0 in
08:51 50.5 °F 49.1 °F 29.8 in SSW 2.5 mph 3.1 mph 95 % 0 in
08:56 50.9 °F 49.5 °F 29.8 in Calm   2.9 mph 95 % 0 in
09:01 51.6 °F 50.2 °F 29.8 in Calm   3.1 mph 95 % 0 in
09:06 51.6 °F 50.2 °F 29.8 in SSW 4.3 mph 6 mph 95 % 0 in
09:11 51.8 °F 50.2 °F 29.8 in Calm   6 mph 94 % 0 in
09:16 52 °F 50.4 °F 29.8 in SSW 3.6 mph 5.8 mph 94 % 0 in
09:21 52 °F 50.4 °F 29.8 in SSW 3.8 mph 6 mph 94 % 0 in
09:26 52.2 °F 50.4 °F 29.9 in SSW 4.7 mph 7.6 mph 94 % 0 in
09:31 52.3 °F 50.4 °F 29.9 in SW 4 mph 7.6 mph 93 % 0 in
09:36 52.3 °F 50 °F 29.9 in SW 7.4 mph 7.4 mph 92 % 0 in
09:41 52.5 °F 50.2 °F 29.9 in SW 5.8 mph 7.4 mph 92 % 0 in
09:46 52.5 °F 50.2 °F 29.9 in SW 4.3 mph 6.7 mph 91 % 0 in
09:51 53.1 °F 50.4 °F 29.9 in SSW 6 mph 6.5 mph 91 % 0 in
09:56 53.2 °F 50.5 °F 29.9 in SW 5.6 mph 6 mph 90 % 0 in
10:01 53.4 °F 50.7 °F 29.9 in SW 3.1 mph 6.3 mph 90 % 0 in
10:06 53.4 °F 50.4 °F 29.9 in SW 4 mph 6.3 mph 89 % 0 in
10:11 53.4 °F 50.2 °F 29.9 in WSW 4.3 mph 6.5 mph 88 % 0 in
10:16 53.4 °F 49.6 °F 29.9 in WSW 7.2 mph 7.6 mph 87 % 0 in
10:21 53.8 °F 49.6 °F 29.9 in WSW 3.6 mph 7.8 mph 86 % 0 in
10:26 54 °F 49.5 °F 29.9 in SSW 2.9 mph 7.8 mph 85 % 0 in
10:31 54 °F 49.3 °F 29.9 in WSW 5.6 mph 7.4 mph 84 % 0 in
10:36 54.9 °F 50.4 °F 29.9 in Calm   7.4 mph 85 % 0 in
10:41 55 °F 50.4 °F 29.9 in Calm   5.6 mph 84 % 0 in
10:46 55.6 °F 50.5 °F 29.9 in SSW 5.8 mph 6 mph 83 % 0 in
10:51 55.8 °F 50.4 °F 29.9 in SW 5.8 mph 7.4 mph 82 % 0 in
10:56 56.3 °F 50.9 °F 29.9 in WSW 6 mph 7.4 mph 82 % 0 in
11:02 56.7 °F 50.5 °F 29.9 in West 7.6 mph 7.8 mph 80 % 0 in
11:07 56.7 °F 49.8 °F 29.9 in SW 6.7 mph 8.5 mph 78 % 0 in
11:12 56.7 °F 49.3 °F 29.9 in SW 5.8 mph 8.9 mph 76 % 0 in
11:17 57 °F 49.6 °F 29.9 in WSW 4.3 mph 8.9 mph 76 % 0 in
11:22 57.6 °F 50.4 °F 29.9 in West 4.3 mph 7.6 mph 77 % 0 in
11:27 58.1 °F 50.2 °F 29.9 in WSW 5.4 mph 7.8 mph 75 % 0 in
11:32 58.8 °F 50.5 °F 29.9 in SW 4 mph 9.8 mph 74 % 0 in
11:37 59.2 °F 50.5 °F 29.9 in WSW 7.6 mph 9.8 mph 73 % 0 in
11:39 59.4 °F 50.4 °F 29.8 in WSW 5.6 mph 9.8 mph 72 % 0 in
11:44 59.4 °F 49.8 °F 29.8 in WSW 4.9 mph 7.8 mph 71 % 0 in
11:49 60.1 °F 50.2 °F 29.8 in WSW 4 mph 7.8 mph 70 % 0 in
11:54 60.4 °F 49.8 °F 29.9 in South 5.4 mph 6.7 mph 68 % 0 in
11:59 61 °F 49.8 °F 29.9 in Calm   8.5 mph 67 % 0 in
12:04 61.3 °F 48.9 °F 29.9 in South 5.6 mph 8.5 mph 64 % 0 in
12:09 60.6 °F 47.5 °F 29.9 in SSW 7.4 mph 7.8 mph 62 % 0 in
12:14 59.9 °F 46.8 °F 29.9 in SW 1.6 mph 7.8 mph 62 % 0 in
12:19 60.6 °F 47.5 °F 29.9 in WSW 6.3 mph 7.6 mph 62 % 0 in
12:24 60.8 °F 46.8 °F 29.9 in SW 4 mph 7.8 mph 60 % 0 in
12:29 61.9 °F 47.8 °F 29.9 in West 7.8 mph 7.8 mph 60 % 0 in
12:34 61.3 °F 45.9 °F 29.9 in SSW 7.6 mph 8.7 mph 57 % 0 in
12:40 61 °F 45.7 °F 29.9 in SW 4 mph 8.9 mph 57 % 0 in
12:45 62.1 °F 46.9 °F 29.9 in SW 6.9 mph 8.9 mph 58 % 0 in
12:50 61.3 °F 45.9 °F 29.9 in Calm   8.7 mph 57 % 0 in
12:55 61.5 °F 45.7 °F 29.9 in SSW 4 mph 7.8 mph 56 % 0 in
13:00 60.8 °F 45 °F 29.9 in SW 6.7 mph 8.5 mph 56 % 0 in
13:05 60.4 °F 45.1 °F 29.9 in WSW 5.8 mph 8.7 mph 57 % 0 in
13:10 60.3 °F 45.3 °F 29.9 in WSW 5.4 mph 8.7 mph 58 % 0 in
13:15 59.9 °F 45.1 °F 29.9 in WSW 3.1 mph 7.4 mph 58 % 0 in
13:20 59.4 °F 44.6 °F 29.9 in West 6.5 mph 8.7 mph 58 % 0 in
13:25 59 °F 44.2 °F 29.9 in West 8.9 mph 10.1 mph 58 % 0 in
13:30 58.8 °F 43.5 °F 29.9 in SW 6.3 mph 10.1 mph 57 % 0 in
13:35 59 °F 44.8 °F 29.9 in WSW 8.1 mph 10.5 mph 59 % 0 in
13:40 60.8 °F 46.2 °F 29.9 in West 10.1 mph 10.5 mph 59 % 0 in
13:45 60.4 °F 45.1 °F 29.9 in West 3.8 mph 10.1 mph 57 % 0 in
13:50 60.8 °F 45.3 °F 29.9 in WSW 4.9 mph 10.1 mph 57 % 0 in
13:55 61.2 °F 45.3 °F 29.9 in WSW 8.5 mph 10.5 mph 56 % 0 in
14:00 61.2 °F 44.8 °F 29.9 in SW 7.4 mph 12.8 mph 55 % 0 in
14:05 61 °F 44.2 °F 29.9 in SSW 5.8 mph 12.8 mph 54 % 0 in
14:10 60.8 °F 44.1 °F 29.9 in WSW 4.9 mph 10.1 mph 54 % 0 in
14:15 60.8 °F 44.1 °F 29.9 in WSW 10.3 mph 10.3 mph 54 % 0 in
14:20 60.8 °F 44.1 °F 29.9 in WSW 4.9 mph 10.3 mph 54 % 0 in
14:25 60.4 °F 43.2 °F 29.9 in WSW 6.9 mph 10.3 mph 53 % 0 in
14:30 60.6 °F 43.3 °F 29.9 in West 6.5 mph 10.5 mph 53 % 0 in
14:35 60.6 °F 43.9 °F 29.9 in WSW 5.6 mph 10.5 mph 54 % 0 in
14:40 60.1 °F 43 °F 29.9 in West 7.8 mph 9.4 mph 53 % 0 in
14:41 59.9 °F 42.6 °F 29.9 in West 8.5 mph 9.4 mph 53 % 0 in
14:46 59.2 °F 42.1 °F 29.9 in SW 7.6 mph 10.7 mph 53 % 0 in
14:52 59 °F 41.9 °F 29.9 in WSW 6.9 mph 10.7 mph 53 % 0 in
14:57 58.8 °F 42.3 °F 29.9 in WSW 3.4 mph 10.3 mph 54 % 0 in
15:02 58.6 °F 42.4 °F 29.9 in WSW 8.1 mph 8.5 mph 55 % 0 in
15:07 58.6 °F 42.4 °F 29.9 in WSW 5.4 mph 8.1 mph 55 % 0 in
15:12 58.5 °F 42.8 °F 29.9 in WSW 8.5 mph 8.5 mph 56 % 0 in
15:17 58.3 °F 43.2 °F 29.9 in SW 6 mph 8.5 mph 57 % 0 in
15:22 58.3 °F 43.2 °F 29.9 in SW 4.9 mph 7.4 mph 57 % 0 in
15:27 58.1 °F 43 °F 29.9 in SW 6 mph 8.7 mph 57 % 0 in
15:32 58.3 °F 43.2 °F 29.9 in WSW 6 mph 8.7 mph 57 % 0 in
15:37 58.5 °F 43.3 °F 29.9 in SSW 2.5 mph 7.6 mph 57 % 0 in
15:42 59 °F 43.9 °F 29.9 in SSW 4 mph 7.6 mph 57 % 0 in
15:47 59.2 °F 43.9 °F 29.9 in WSW 5.8 mph 6 mph 57 % 0 in
15:52 59.2 °F 43.9 °F 29.9 in SW 3.8 mph 6.5 mph 57 % 0 in
15:57 59.2 °F 43.9 °F 29.9 in Calm   6.5 mph 57 % 0 in
16:02 59.5 °F 44.2 °F 29.9 in WSW 1.3 mph 5.4 mph 57 % 0 in
16:07 59.5 °F 43.3 °F 29.9 in West 7.4 mph 10.3 mph 55 % 0 in
16:12 59.5 °F 43 °F 29.9 in SW 4.3 mph 10.3 mph 54 % 0 in
16:17 59.4 °F 42.6 °F 29.9 in West 4.9 mph 8.7 mph 54 % 0 in
16:22 59 °F 41.9 °F 29.9 in WSW 8.5 mph 11.9 mph 53 % 0 in
16:27 59 °F 42.4 °F 29.9 in WSW 5.6 mph 11.9 mph 54 % 0 in
16:32 59.2 °F 42.4 °F 29.9 in WSW 7.6 mph 10.1 mph 54 % 0 in
16:37 59.2 °F 43 °F 29.9 in WSW 6.3 mph 10.1 mph 55 % 0 in
16:42 59.2 °F 42.4 °F 29.9 in West 7.6 mph 9.8 mph 54 % 0 in
16:47 59 °F 42.8 °F 29.9 in WSW 8.7 mph 9.8 mph 55 % 0 in
16:52 59 °F 42.8 °F 29.9 in West 5.8 mph 10.1 mph 55 % 0 in
16:57 58.8 °F 43.2 °F 29.9 in West 7.6 mph 10.5 mph 56 % 0 in
17:02 58.8 °F 43.2 °F 29.9 in WSW 8.5 mph 10.5 mph 56 % 0 in
17:07 58.8 °F 43.2 °F 29.9 in WSW 5.8 mph 8.7 mph 56 % 0 in
17:12 58.8 °F 43.2 °F 29.9 in WSW 5.8 mph 8.5 mph 56 % 0 in
17:17 58.5 °F 43.3 °F 29.9 in West 5.8 mph 9.2 mph 57 % 0 in
17:22 58.3 °F 44.1 °F 29.9 in West 7.2 mph 9.2 mph 59 % 0 in
17:27 58.3 °F 44.1 °F 29.9 in WSW 8.1 mph 8.7 mph 59 % 0 in
17:32 58.1 °F 43.9 °F 29.9 in West 4 mph 9.4 mph 59 % 0 in
17:37 57.9 °F 44.1 °F 29.9 in WSW 8.5 mph 9.4 mph 60 % 0 in
17:42 57.9 °F 44.6 °F 29.9 in West 6.5 mph 8.9 mph 61 % 0 in
17:47 57.9 °F 44.6 °F 29.9 in WSW 6.3 mph 8.9 mph 61 % 0 in
17:52 58.1 °F 45.1 °F 29.9 in West 5.8 mph 7.6 mph 62 % 0 in
17:57 58.3 °F 45.3 °F 29.9 in West 6.5 mph 7.8 mph 62 % 0 in
18:02 58.8 °F 45 °F 29.9 in WSW 6.5 mph 8.7 mph 60 % 0 in
18:07 60.3 °F 45.3 °F 29.9 in West 7.4 mph 8.7 mph 58 % 0 in
18:12 61.3 °F 45.3 °F 29.9 in West 6.5 mph 8.1 mph 56 % 0 in
18:18 61 °F 44.2 °F 29.9 in SW 5.6 mph 8.5 mph 54 % 0 in
18:22 61 °F 44.2 °F 29.9 in SW 4.9 mph 8.5 mph 54 % 0 in
18:28 61.5 °F 44.8 °F 29.9 in WSW 6.9 mph 8.5 mph 54 % 0 in
18:33 61.5 °F 43.7 °F 29.9 in WSW 3.8 mph 7.8 mph 52 % 0 in
18:38 62.1 °F 44.2 °F 29.9 in West 3.6 mph 6.3 mph 52 % 0 in
18:43 62.2 °F 44.4 °F 29.9 in WSW 4.3 mph 6.3 mph 52 % 0 in
18:48 62.1 °F 43.5 °F 29.9 in WSW 4.9 mph 6.5 mph 51 % 0 in
18:53 61.5 °F 43.2 °F 29.9 in WSW 4.7 mph 8.7 mph 51 % 0 in
18:58 60.8 °F 42.1 °F 29.9 in WSW 7.4 mph 9.4 mph 50 % 0 in
19:03 60.6 °F 42.3 °F 29.9 in WSW 3.4 mph 9.4 mph 51 % 0 in
19:08 60.4 °F 42.3 °F 29.8 in WSW 5.8 mph 7.6 mph 51 % 0 in
19:13 60.1 °F 42.4 °F 29.8 in WSW 5.8 mph 7.6 mph 52 % 0 in
19:18 59.9 °F 42.6 °F 29.8 in WSW 4 mph 7.2 mph 53 % 0 in
19:23 59.4 °F 42.3 °F 29.9 in WSW 3.8 mph 6.3 mph 53 % 0 in
19:28 58.5 °F 41.9 °F 29.9 in WSW 3.8 mph 6.3 mph 54 % 0 in
19:33 58.3 °F 42.3 °F 29.9 in WSW 4.3 mph 5.4 mph 55 % 0 in
19:38 58.1 °F 42.1 °F 29.9 in Calm   4.9 mph 55 % 0 in
19:43 57.9 °F 42.3 °F 29.9 in Calm   4 mph 56 % 0 in
19:48 57.4 °F 41.7 °F 29.9 in Calm   3.1 mph 56 % 0 in
19:53 57.2 °F 42.1 °F 29.9 in Calm   3.6 mph 57 % 0 in
19:58 56.8 °F 42.3 °F 29.9 in Calm   3.6 mph 58 % 0 in
20:03 56.7 °F 42.4 °F 29.9 in Calm     59 % 0 in
20:08 56.3 °F 42.6 °F 29.9 in Calm     60 % 0 in
20:13 56.1 °F 42.4 °F 29.9 in WSW 1.6 mph 5.8 mph 60 % 0 in
20:18 55.8 °F 42.6 °F 29.9 in West 3.6 mph 5.8 mph 61 % 0 in
20:23 55.6 °F 42.3 °F 29.9 in Calm   4.7 mph 61 % 0 in
20:28 54.9 °F 42.1 °F 29.9 in Calm   4.7 mph 62 % 0 in
20:33 54 °F 41.7 °F 29.9 in Calm   2.9 mph 63 % 0 in
20:38 53.2 °F 41.2 °F 29.9 in Calm   0.9 mph 63 % 0 in
20:43 52.5 °F 40.8 °F 29.9 in Calm     64 % 0 in
20:48 52.3 °F 40.8 °F 29.9 in Calm     65 % 0 in
20:53 51.8 °F 40.8 °F 29.9 in Calm     66 % 0 in
20:58 51.3 °F 40.6 °F 29.9 in Calm     67 % 0 in
21:03 50.7 °F 40.5 °F 29.9 in Calm     68 % 0 in
21:08 50.4 °F 40.6 °F 29.9 in Calm     69 % 0 in
21:13 50 °F 40.3 °F 29.9 in Calm     69 % 0 in
21:18 49.6 °F 40.3 °F 29.9 in Calm     70 % 0 in
21:23 49.1 °F 40.1 °F 29.9 in Calm     71 % 0 in
21:28 48.7 °F 39.7 °F 29.9 in Calm     71 % 0 in
21:33 48.4 °F 39.7 °F 29.9 in Calm     72 % 0 in
21:38 48 °F 39.6 °F 29.9 in Calm     72 % 0 in
21:43 47.8 °F 39.6 °F 29.9 in Calm     73 % 0 in
21:48 47.5 °F 39.6 °F 29.9 in Calm     74 % 0 in
21:53 47.3 °F 39.7 °F 29.9 in Calm     75 % 0 in
21:54 47.3 °F 39.7 °F 29.9 in Calm     75 % 0 in
21:59 47.3 °F 40.3 °F 29.9 in Calm     76 % 0 in
22:04 47.3 °F 40.3 °F 29.9 in Calm     76 % 0 in
22:09 47.1 °F 39.9 °F 29.9 in Calm   2 mph 76 % 0 in
22:14 46.9 °F 39.7 °F 29.9 in Calm   2 mph 76 % 0 in
22:19 46.9 °F 40.3 °F 29.9 in Calm     77 % 0 in
22:24 46.8 °F 39.9 °F 29.9 in Calm     77 % 0 in
22:29 46.8 °F 40.3 °F 29.9 in Calm     78 % 0 in
22:34 46.8 °F 40.6 °F 29.9 in Calm     79 % 0 in
22:39 46.8 °F 40.6 °F 29.9 in Calm     79 % 0 in
22:44 46.8 °F 41 °F 29.9 in Calm     80 % 0 in
22:49 46.9 °F 41.5 °F 29.9 in Calm     81 % 0 in
22:54 47.1 °F 42.1 °F 29.9 in Calm     82 % 0 in
22:59 47.5 °F 42.3 °F 29.9 in Calm     82 % 0 in
23:04 47.7 °F 42.8 °F 29.9 in Calm     83 % 0 in
23:09 47.8 °F 42.6 °F 29.9 in Calm     82 % 0 in
23:14 47.8 °F 42.6 °F 29.9 in Calm     82 % 0 in
23:19 48.2 °F 43.3 °F 29.9 in Calm     83 % 0 in
23:24 48.4 °F 43.5 °F 29.9 in Calm   3.1 mph 83 % 0 in
23:29 48.4 °F 43.5 °F 29.9 in West 1.1 mph 3.1 mph 83 % 0 in
23:34 48.4 °F 43.5 °F 29.9 in Calm   2.7 mph 83 % 0 in
23:39 48.2 °F 43 °F 29.9 in Calm   2.7 mph 82 % 0 in
23:44 47.7 °F 42.4 °F 29.9 in Calm     82 % 0 in
23:49 47.3 °F 42.1 °F 29.9 in Calm     82 % 0 in
23:54 46.9 °F 41.5 °F 29.9 in Calm     81 % 0 in
23:59 46.6 °F 41.2 °F 29.9 in Calm     81 % 0 in
Le Gheer Warneton
Courtoisie de Weather Underground - 2.25 mb

Mise a jour : 16-12-17 12:15:12
Généré par Cumulus 1.9.4 (1099)